Flight Track Log - Related Links

Times and Time Zones

All times are in EDT time to prevent confusion due to time zone crossing. See the N87ER flight status page for this flight to view local times or setup timezone preferences in your user account.

Time Position Orientation Groundspeed Altitude Reporting Facility
EDT Latitude Longitude Course Direction KTS MPH feet Rate Location/Type
Sun 09:37:00 PM 35.1851 -85.4246 313° West  Level FlightAware Approximate
Sun 09:38:00 PM 35.2120 -85.4604 313° West  Level FlightAware Approximate
Sun 09:39:00 PM 35.2389 -85.4963 313° West  Level FlightAware Approximate
Sun 09:39:04 PM 35.0778 -85.3672 312° West 124 143 6,000  Level Memphis Center
Sun 09:40:00 PM 35.2658 -85.5322 313° West  Level FlightAware Approximate
Sun 09:40:06 PM 35.1044 -85.3886 327° Northwest 131 151 6,100  Level Memphis Center
Sun 09:41:00 PM 35.2926 -85.5681 312° West  Level FlightAware Approximate
Sun 09:41:07 PM 35.1275 -85.4236 309° West 134 154 6,100  Level Memphis Center
Sun 09:42:00 PM 35.3195 -85.6040 312° West  Level FlightAware Approximate
Sun 09:42:08 PM 35.1531 -85.4608 310° West 134 154 6,100  Level Memphis Center
Sun 09:43:00 PM 35.3463 -85.6400 312° West  Level FlightAware Approximate
Sun 09:43:10 PM 35.1881 -85.4975 319° Northwest 134 154 6,100  Level Memphis Center
Sun 09:44:00 PM 35.3731 -85.6760 312° West  Level FlightAware Approximate
Sun 09:44:11 PM 35.2161 -85.5317 315° West 137 158 6,100  Level Memphis Center
Sun 09:45:13 PM 35.2403 -85.5642 312° West 140 161 6,100 49 Level Memphis Center
Sun 09:46:14 PM 35.2664 -85.5978 314° West 140 161 6,200 49 Climbing Memphis Center
Sun 09:47:15 PM 35.2992 -85.6367 316° Northwest 140 161 6,200  Level Memphis Center
Sun 09:48:17 PM 35.3258 -85.6728 312° West 140 161 6,200  Level Memphis Center
Sun 09:49:18 PM 35.3536 -85.7075 314° West 140 161 6,200  Level Memphis Center
Sun 09:50:20 PM 35.3825 -85.7422 316° Northwest 140 161 6,200  Level Memphis Center
Sun 09:51:21 PM 35.4106 -85.7764 315° West 140 161 6,200  Level Memphis Center
Sun 09:52:22 PM 35.4367 -85.8117 312° West 140 161 6,200  Level Memphis Center
Sun 09:53:23 PM 35.4639 -85.8461 314° West 138 159 6,200  Level Memphis Center
Sun 09:54:25 PM 35.4908 -85.8800 314° West 138 159 6,200  Level Memphis Center
Sun 09:55:26 PM 35.5178 -85.9147 314° West 138 159 6,200  Level Memphis Center
Sun 09:56:27 PM 35.5439 -85.9511 311° West 138 159 6,200  Level Memphis Center
Sun 09:57:29 PM 35.5711 -85.9864 313° West 139 160 6,200 -146 Level Memphis Center
Sun 09:58:30 PM 35.5997 -86.0222 314° West 140 161 5,900 -492 Descending Memphis Center
Sun 09:59:31 PM 35.6308 -86.0603 315° West 152 175 5,200 -541 Descending Memphis Center
Sun 10:00:32 PM 35.6633 -86.1000 315° West 158 182 4,800 -541 Descending Memphis Center
Sun 10:01:33 PM 35.6950 -86.1414 313° West 160 184 4,100 -634 Descending Memphis Center
Sun 10:02:35 PM 35.7311 -86.1864 315° West 162 186 3,500 -581 Descending Memphis Center

Login

Don't have an account? Register now (free) for customized features, flight alerts, and more!